Time;durP1;ratioP1;P1;durP2;ratioP2;P2;SDS_P1;SDS_P2;PMS_P1;PMS_P2;Temp;Humidity;BMP_temperature;BMP_pressure;BME280_temperature;BME280_humidity;BME280_pressure;Samples;Min_cycle;Max_cycle;Signal;HPM_P1;HPM_P2
2022/08/20 00:00:25;;;;;;;14.63;3.10;;;;;;;21.92;53.95;100725.91;5039626;28;20087;-59
2022/08/20 00:02:55;;;;;;;18.55;4.00;;;;;;;21.70;54.80;100723.63;5033295;28;20026;-58
2022/08/20 00:05:26;;;;;;;24.05;4.40;;;;;;;21.58;55.08;100723.16;5031499;28;20033;-59
2022/08/20 00:07:53;;;;;;;12.60;2.80;;;;;;;21.41;55.80;100730.88;5049607;28;20544;-59
2022/08/20 00:10:21;;;;;;;16.55;3.33;;;;;;;21.32;55.64;100723.31;5050915;28;20387;-59
2022/08/20 00:12:49;;;;;;;11.55;3.25;;;;;;;21.31;56.38;100716.22;5050979;28;20025;-59
2022/08/20 00:15:20;;;;;;;13.93;3.38;;;;;;;21.25;56.27;100719.22;5051280;28;20453;-59
2022/08/20 00:17:51;;;;;;;18.73;3.83;;;;;;;20.82;56.89;100716.13;5051260;28;20112;-59
2022/08/20 00:20:19;;;;;;;9.23;2.83;;;;;;;20.91;57.55;100706.31;5037149;28;20025;-59
2022/08/20 00:22:46;;;;;;;14.07;3.30;;;;;;;20.77;57.94;100718.91;5053545;28;20099;-59
2022/08/20 00:25:13;;;;;;;73.70;7.55;;;;;;;20.87;57.57;100720.75;5061196;23;20469;-59
2022/08/20 00:27:39;;;;;;;18.88;3.67;;;;;;;20.81;57.17;100718.03;5054286;28;20094;-58
2022/08/20 00:30:09;;;;;;;10.95;3.60;;;;;;;20.64;57.60;100723.00;5054772;28;20467;-59
2022/08/20 00:32:57;;;;;;;19.42;5.15;;;;;;;20.78;58.38;100713.16;5054819;28;20526;-60
2022/08/20 00:35:26;;;;;;;14.82;3.33;;;;;;;20.77;58.22;100711.53;5050573;28;20025;-59
2022/08/20 00:37:53;;;;;;;15.48;3.70;;;;;;;20.76;57.50;100701.72;5059782;28;20082;-59
2022/08/20 00:40:25;;;;;;;12.32;3.65;;;;;;;20.82;58.32;100695.22;5030225;28;20030;-59
2022/08/20 00:42:57;;;;;;;14.18;3.40;;;;;;;20.68;57.97;100696.88;5038997;28;20049;-59
2022/08/20 00:45:25;;;;;;;9.30;2.90;;;;;;;20.81;57.71;100701.72;5034234;28;20361;-60
2022/08/20 00:47:54;;;;;;;11.13;3.25;;;;;;;20.88;57.81;100693.28;5034267;28;20034;-59
2022/08/20 00:50:25;;;;;;;11.93;2.90;;;;;;;21.03;57.34;100693.19;5034029;28;20033;-58
2022/08/20 00:52:52;;;;;;;12.30;3.17;;;;;;;20.77;58.07;100697.13;5042164;28;20072;-59
2022/08/20 00:55:21;;;;;;;11.55;3.25;;;;;;;20.55;58.11;100689.31;5048323;28;20470;-58
2022/08/20 00:57:53;;;;;;;12.77;3.55;;;;;;;20.26;59.24;100689.84;5052802;28;20036;-59
2022/08/20 01:00:48;;;;;;;13.93;3.60;;;;;;;20.25;59.79;100690.13;5050852;28;20033;-58
2022/08/20 01:03:19;;;;;;;11.98;3.42;;;;;;;20.17;59.28;100690.69;5036878;28;20040;-58
2022/08/20 01:05:48;;;;;;;11.82;3.10;;;;;;;20.16;59.54;100689.09;5053089;28;20076;-59
2022/08/20 01:08:17;;;;;;;14.95;4.00;;;;;;;20.05;60.00;100688.28;5053886;28;20043;-58
2022/08/20 01:10:47;;;;;;;11.68;2.78;;;;;;;19.72;61.02;100678.75;5050645;28;20032;-58
2022/08/20 01:13:19;;;;;;;13.30;3.72;;;;;;;19.65;61.37;100691.78;5053485;28;20033;-59
2022/08/20 01:15:49;;;;;;;14.73;3.33;;;;;;;19.56;61.95;100674.38;5041737;28;20029;-59
2022/08/20 01:18:19;;;;;;;13.15;3.00;;;;;;;19.63;61.21;100683.91;5033952;28;20032;-59
2022/08/20 01:20:50;;;;;;;16.13;3.38;;;;;;;19.58;62.07;100681.16;5049373;28;20048;-58
2022/08/20 01:23:33;;;;;;;10.60;2.92;;;;;;;19.60;62.26;100684.44;5043503;28;20105;-58
2022/08/20 01:26:14;;;;;;;16.10;4.25;;;;;;;19.62;62.08;100674.13;5034657;28;20041;-58
2022/08/20 01:28:44;;;;;;;12.32;3.63;;;;;;;19.54;61.96;100677.34;5049142;28;20044;-58
2022/08/20 01:31:18;;;;;;;18.83;4.05;;;;;;;19.49;61.63;100656.44;5052547;28;20483;-59
2022/08/20 01:33:44;;;;;;;16.77;3.83;;;;;;;19.44;62.32;100664.56;5046091;28;20028;-58
2022/08/20 01:36:14;;;;;;;19.08;4.03;;;;;;;18.96;63.46;100669.31;5033096;28;20376;-58
2022/08/20 01:38:42;;;;;;;16.30;3.85;;;;;;;19.15;63.39;100669.66;5038661;28;20017;-59
2022/08/20 01:41:26;;;;;;;18.52;4.10;;;;;;;19.16;63.16;100665.88;5035914;28;20029;-59
2022/08/20 01:43:56;;;;;;;14.33;3.77;;;;;;;19.16;63.49;100671.31;5034319;28;20383;-58
2022/08/20 01:46:40;;;;;;;11.60;3.90;;;;;;;19.08;63.47;100658.25;5033234;28;20270;-58
2022/08/20 01:49:23;;;;;;;17.70;3.75;;;;;;;18.99;64.13;100659.88;5033235;28;20018;-59
2022/08/20 01:51:52;;;;;;;11.95;3.63;;;;;;;19.06;63.62;100665.03;5050521;28;20386;-58
2022/08/20 01:54:19;;;;;;;17.17;3.95;;;;;;;19.04;63.77;100662.56;5053206;28;20028;-59
2022/08/20 01:57:02;;;;;;;20.85;3.60;;;;;;;19.19;63.42;100665.31;5049778;28;20048;-59
2022/08/20 01:59:29;;;;;;;13.15;3.95;;;;;;;18.93;64.04;100661.75;5036800;28;20118;-59
2022/08/20 02:01:57;;;;;;;17.10;4.43;;;;;;;18.93;64.02;100660.91;5045096;28;20489;-58
2022/08/20 02:04:26;;;;;;;13.85;4.13;;;;;;;18.79;64.86;100662.47;5032895;28;20427;-58
2022/08/20 02:06:58;;;;;;;13.27;3.92;;;;;;;18.75;64.85;100658.66;5047122;28;20032;-59
2022/08/20 02:09:31;;;;;;;13.07;4.13;;;;;;;18.44;65.78;100669.34;5052653;28;20566;-58
2022/08/20 02:11:58;;;;;;;16.08;4.60;;;;;;;18.42;66.47;100657.91;5052786;28;20055;-58
2022/08/20 02:14:25;;;;;;;14.90;3.67;;;;;;;18.34;66.24;100664.66;5039584;28;20075;-58
2022/08/20 02:16:52;;;;;;;18.45;4.40;;;;;;;18.29;66.47;100661.91;5037832;28;20079;-59
2022/08/20 02:19:26;;;;;;;13.75;3.67;;;;;;;18.20;66.81;100658.06;5039587;28;20380;-59
2022/08/20 02:21:57;;;;;;;19.53;5.20;;;;;;;18.09;67.49;100668.00;5070046;28;20060;-59
2022/08/20 02:24:24;;;;;;;15.90;3.95;;;;;;;18.01;68.00;100665.78;5072029;28;20681;-59
2022/08/20 02:26:51;;;;;;;15.73;4.10;;;;;;;18.04;67.57;100665.25;5063120;28;20056;-60
2022/08/20 02:29:18;;;;;;;16.55;3.92;;;;;;;17.98;67.79;100658.16;5046802;28;20028;-59
2022/08/20 02:31:44;;;;;;;19.48;4.50;;;;;;;17.89;68.64;100665.16;5051402;28;20427;-59
2022/08/20 02:34:12;;;;;;;16.73;4.38;;;;;;;17.85;68.26;100659.44;5039464;28;20013;-59
2022/08/20 02:36:43;;;;;;;14.25;3.50;;;;;;;17.84;68.33;100659.69;5032569;28;20102;-59
2022/08/20 02:39:11;;;;;;;15.55;4.40;;;;;;;17.73;69.08;100671.53;5047945;28;20518;-59
2022/08/20 02:41:39;;;;;;;13.10;4.10;;;;;;;17.76;68.72;100660.16;5058990;28;20033;-59
2022/08/20 02:44:06;;;;;;;18.52;3.88;;;;;;;17.71;68.96;100668.19;5035560;28;20078;-59
2022/08/20 02:46:33;;;;;;;18.58;4.75;;;;;;;17.57;69.15;100665.94;5047924;28;20131;-59
2022/08/20 02:48:59;;;;;;;20.60;4.28;;;;;;;17.48;69.89;100662.03;5048787;28;20056;-59
2022/08/20 02:51:26;;;;;;;14.32;3.92;;;;;;;17.26;70.76;100662.09;5045763;28;20028;-59
2022/08/20 02:53:53;;;;;;;14.95;3.92;;;;;;;17.21;71.16;100661.22;5044981;28;20545;-59
2022/08/20 02:56:19;;;;;;;22.65;4.82;;;;;;;17.26;70.64;100669.41;5039328;28;20487;-59
2022/08/20 02:58:46;;;;;;;17.88;4.70;;;;;;;17.19;71.08;100660.66;5045160;28;20029;-59
2022/08/20 03:01:15;;;;;;;12.73;3.90;;;;;;;17.06;71.57;100662.69;5047211;28;20036;-59
2022/08/20 03:03:42;;;;;;;15.90;4.75;;;;;;;17.11;71.28;100656.53;5051107;28;20052;-57
2022/08/20 03:06:10;;;;;;;17.73;4.88;;;;;;;16.88;72.44;100663.03;5051488;28;20234;-57
2022/08/20 03:08:36;;;;;;;19.77;4.68;;;;;;;16.80;72.72;100655.34;5051594;28;20063;-57
2022/08/20 03:11:04;;;;;;;15.88;4.22;;;;;;;16.86;72.79;100659.75;5048470;28;20033;-57
2022/08/20 03:13:30;;;;;;;14.80;4.22;;;;;;;16.84;72.78;100665.41;5049954;28;20036;-59
2022/08/20 03:15:58;;;;;;;16.50;4.47;;;;;;;16.84;72.72;100659.19;5031414;28;20052;-60
2022/08/20 03:18:28;;;;;;;15.77;4.97;;;;;;;16.76;72.76;100660.44;5039457;28;20028;-58
2022/08/20 03:20:55;;;;;;;20.77;4.82;;;;;;;16.76;73.30;100662.31;5049961;28;20021;-57
2022/08/20 03:23:21;;;;;;;20.25;4.35;;;;;;;16.63;73.45;100661.59;5051658;28;20506;-57
2022/08/20 03:25:48;;;;;;;16.73;4.40;;;;;;;16.70;73.71;100666.81;5046167;28;20084;-57
2022/08/20 03:28:15;;;;;;;23.20;4.55;;;;;;;16.69;73.27;100664.38;5031465;28;20028;-57
2022/08/20 03:30:42;;;;;;;18.23;4.88;;;;;;;16.62;73.94;100662.69;5031071;28;20380;-57
2022/08/20 03:33:09;;;;;;;20.27;5.20;;;;;;;16.55;74.33;100662.03;5031515;28;20029;-59
2022/08/20 03:35:36;;;;;;;18.08;5.40;;;;;;;16.51;74.42;100673.59;5046224;28;20502;-59
2022/08/20 03:38:10;;;;;;;18.48;5.30;;;;;;;16.54;74.01;100654.97;5051484;28;20036;-60
2022/08/20 03:40:37;;;;;;;17.27;4.43;;;;;;;16.52;74.20;100667.13;5051342;28;20113;-59
2022/08/20 03:43:07;;;;;;;15.88;4.65;;;;;;;16.41;74.97;100668.88;5044345;28;20148;-57
2022/08/20 03:45:36;;;;;;;21.20;4.95;;;;;;;16.39;75.14;100667.50;5031326;28;20034;-58
2022/08/20 03:48:06;;;;;;;16.73;5.10;;;;;;;16.46;75.05;100666.22;5031246;28;20029;-57
2022/08/20 03:50:33;;;;;;;18.65;4.85;;;;;;;16.49;74.55;100668.44;5034599;28;20487;-57
2022/08/20 03:53:00;;;;;;;16.63;4.65;;;;;;;16.50;74.22;100667.38;5031509;28;20044;-59
2022/08/20 03:55:28;;;;;;;14.35;4.00;;;;;;;16.32;75.04;100676.59;5042534;28;20032;-57
2022/08/20 03:57:59;;;;;;;24.33;5.70;;;;;;;16.40;74.99;100675.34;5053544;28;20120;-57
2022/08/20 04:00:46;;;;;;;16.25;4.45;;;;;;;16.39;75.31;100675.59;5054904;28;20079;-58
2022/08/20 04:03:13;;;;;;;20.27;4.72;;;;;;;16.41;74.71;100673.44;5053773;28;20032;-58
2022/08/20 04:05:41;;;;;;;23.75;5.10;;;;;;;16.39;75.14;100676.41;5037910;28;20044;-58
2022/08/20 04:08:14;;;;;;;17.38;4.65;;;;;;;16.25;75.65;100677.81;5036165;28;20132;-58
2022/08/20 04:10:42;;;;;;;24.30;5.10;;;;;;;16.32;75.36;100676.59;5041204;28;20108;-59
2022/08/20 04:13:08;;;;;;;21.05;6.22;;;;;;;16.44;75.07;100679.19;5055012;28;20021;-59
2022/08/20 04:15:35;;;;;;;20.85;5.28;;;;;;;16.34;75.37;100679.03;5053441;28;20029;-60
2022/08/20 04:18:06;;;;;;;23.27;5.93;;;;;;;16.37;74.89;100684.75;5053729;28;20100;-59
2022/08/20 04:20:34;;;;;;;15.18;5.18;;;;;;;16.36;75.18;100683.09;5053685;28;20025;-59
2022/08/20 04:23:00;;;;;;;26.15;5.22;;;;;;;16.43;74.89;100682.13;5054724;28;20025;-58
2022/08/20 04:25:30;;;;;;;18.55;4.85;;;;;;;16.48;74.63;100679.50;5053165;28;20048;-57
2022/08/20 04:28:02;;;;;;;17.50;5.13;;;;;;;16.42;74.88;100680.47;5053103;28;20052;-57
2022/08/20 04:30:29;;;;;;;12.93;4.32;;;;;;;16.42;75.02;100675.09;5053362;28;20032;-58
2022/08/20 04:32:55;;;;;;;19.98;6.20;;;;;;;16.27;75.57;100681.09;5054360;28;20028;-57
2022/08/20 04:35:23;;;;;;;21.30;4.82;;;;;;;16.31;75.32;100674.13;5041296;28;20025;-57
2022/08/20 04:37:56;;;;;;;16.75;5.65;;;;;;;16.29;75.49;100670.84;5053667;28;20490;-58
2022/08/20 04:43:15;;;;;;;20.70;5.03;;;;;;;16.26;76.08;100674.03;5018322;28;20725;-59
2022/08/20 04:45:42;;;;;;;26.33;5.88;;;;;;;16.07;76.15;100678.88;5034408;28;20383;-58
2022/08/20 04:48:09;;;;;;;20.58;5.53;;;;;;;16.19;75.71;100684.19;5036209;28;20434;-59
2022/08/20 04:50:38;;;;;;;21.67;5.43;;;;;;;16.21;75.63;100677.50;5036089;28;20068;-59
2022/08/20 04:53:07;;;;;;;20.40;5.35;;;;;;;16.23;75.63;100677.25;5053861;28;20033;-59
2022/08/20 04:55:37;;;;;;;23.63;6.18;;;;;;;16.30;75.33;100675.19;5052156;28;20040;-59
2022/08/20 04:58:09;;;;;;;23.95;5.63;;;;;;;16.22;75.66;100676.44;5054022;28;20078;-59
2022/08/20 05:00:36;;;;;;;19.73;6.15;;;;;;;16.16;75.62;100681.97;5051902;28;20497;-59
2022/08/20 05:03:02;;;;;;;24.67;6.22;;;;;;;16.12;76.19;100678.16;5053747;28;20437;-59
2022/08/20 05:05:29;;;;;;;22.10;6.15;;;;;;;16.10;76.26;100684.63;5051547;28;20025;-59
2022/08/20 05:07:57;;;;;;;26.45;6.07;;;;;;;16.15;76.27;100683.88;5052597;28;20087;-59
2022/08/20 05:10:24;;;;;;;30.05;6.28;;;;;;;16.08;76.60;100689.44;5051584;28;20364;-59
2022/08/20 05:12:50;;;;;;;24.67;5.90;;;;;;;16.04;77.10;100680.19;5053117;28;20075;-59
2022/08/20 05:15:16;;;;;;;30.10;6.93;;;;;;;16.19;76.65;100676.91;5050288;28;20433;-59
2022/08/20 05:17:45;;;;;;;23.95;5.97;;;;;;;16.22;77.03;100679.13;5053543;28;20032;-59
2022/08/20 05:20:16;;;;;;;18.15;5.13;;;;;;;16.18;77.02;100680.69;5052582;28;20107;-59
2022/08/20 05:22:43;;;;;;;20.58;5.32;;;;;;;16.27;76.68;100673.00;5034046;28;20146;-59
2022/08/20 05:25:09;;;;;;;30.80;5.15;;;;;;;16.07;77.21;100668.09;5033447;28;20239;-59
2022/08/20 05:27:36;;;;;;;25.33;5.53;;;;;;;16.05;77.23;100671.03;5034870;28;20029;-59
2022/08/20 05:30:07;;;;;;;16.67;5.40;;;;;;;16.17;76.38;100681.75;5050086;28;20025;-59
2022/08/20 05:32:34;;;;;;;18.73;4.78;;;;;;;16.23;76.14;100677.25;5034182;28;20099;-59
2022/08/20 05:35:02;;;;;;;17.85;5.13;;;;;;;16.17;75.82;100668.25;5050326;28;20056;-59
2022/08/20 05:37:30;;;;;;;19.90;5.90;;;;;;;16.00;76.29;100668.25;5036152;28;20045;-59
2022/08/20 05:39:56;;;;;;;21.85;5.95;;;;;;;16.11;75.70;100682.75;5040376;28;20033;-59
2022/08/20 05:42:23;;;;;;;15.57;4.93;;;;;;;16.03;75.97;100683.13;5037207;28;20029;-59
2022/08/20 05:44:49;;;;;;;31.50;6.30;;;;;;;15.87;76.61;100676.66;5050439;28;20151;-59
2022/08/20 05:47:17;;;;;;;20.25;5.88;;;;;;;16.01;76.29;100688.78;5051649;28;20037;-59
2022/08/20 05:49:45;;;;;;;22.05;5.90;;;;;;;15.97;76.74;100679.53;5052749;28;20021;-59
2022/08/20 05:52:11;;;;;;;29.45;5.97;;;;;;;15.98;76.66;100683.88;5039764;28;20025;-59
2022/08/20 05:54:38;;;;;;;20.23;5.95;;;;;;;16.01;76.64;100685.28;5035106;28;20030;-59
2022/08/20 05:57:04;;;;;;;21.23;5.20;;;;;;;16.01;76.97;100688.78;5050931;28;20068;-59
2022/08/20 05:59:33;;;;;;;22.67;5.93;;;;;;;15.93;77.17;100673.00;5052324;28;20141;-59
2022/08/20 06:01:59;;;;;;;22.15;6.60;;;;;;;15.90;77.71;100673.50;5050910;28;20078;-59
2022/08/20 06:04:27;;;;;;;30.40;5.88;;;;;;;15.84;78.09;100671.78;5053258;28;20126;-59
2022/08/20 06:07:03;;;;;;;22.02;6.05;;;;;;;15.78;78.49;100670.88;5033355;28;20119;-59
2022/08/20 06:09:30;;;;;;;28.85;5.85;;;;;;;15.92;78.10;100674.06;5046249;28;20037;-59
2022/08/20 06:11:58;;;;;;;23.95;5.80;;;;;;;15.86;78.20;100679.63;5034427;28;20025;-59
2022/08/20 06:14:25;;;;;;;24.25;5.70;;;;;;;15.92;77.73;100676.75;5046214;28;20025;-59
2022/08/20 06:16:51;;;;;;;24.60;5.57;;;;;;;15.96;77.68;100677.91;5034654;28;20476;-59
2022/08/20 06:19:17;;;;;;;27.27;5.63;;;;;;;15.86;78.15;100677.75;5036579;28;20038;-59
2022/08/20 06:21:43;;;;;;;24.90;6.20;;;;;;;15.87;78.11;100675.84;5039565;28;20436;-59
2022/08/20 06:24:10;;;;;;;22.92;6.13;;;;;;;15.84;78.15;100672.59;5039475;28;20033;-61
2022/08/20 06:26:36;;;;;;;27.00;7.10;;;;;;;15.91;77.96;100677.81;5060645;28;20024;-59
2022/08/20 06:29:05;;;;;;;24.38;5.95;;;;;;;15.80;78.31;100676.03;5051403;28;20065;-59
2022/08/20 06:31:31;;;;;;;20.73;6.50;;;;;;;15.94;77.75;100673.84;5030277;28;20163;-59
2022/08/20 06:33:57;;;;;;;25.35;6.47;;;;;;;15.93;77.63;100678.38;5038273;28;20045;-59
2022/08/20 06:36:24;;;;;;;25.35;6.32;;;;;;;15.80;78.52;100686.81;5045384;28;20060;-59
2022/08/20 06:38:50;;;;;;;22.33;6.68;;;;;;;15.83;78.18;100689.03;5036579;28;20044;-59
2022/08/20 06:41:17;;;;;;;22.83;6.50;;;;;;;15.83;78.24;100672.84;5047026;28;20060;-59
2022/08/20 06:43:43;;;;;;;28.45;6.88;;;;;;;15.87;78.51;100673.16;5063440;28;20440;-59
2022/08/20 06:46:09;;;;;;;22.27;5.95;;;;;;;15.89;78.17;100671.06;5067328;28;20040;-59
2022/08/20 06:48:35;;;;;;;26.10;6.88;;;;;;;15.80;78.90;100670.63;5052016;28;20032;-59
2022/08/20 06:51:02;;;;;;;21.45;6.57;;;;;;;15.80;78.96;100674.13;5049949;28;20374;-59
2022/08/20 06:53:28;;;;;;;20.40;6.03;;;;;;;15.76;79.06;100664.06;5051000;28;20029;-59
2022/08/20 06:55:58;;;;;;;22.95;6.70;;;;;;;15.89;78.66;100658.38;5042206;28;20446;-59
2022/08/20 06:58:25;;;;;;;27.08;6.20;;;;;;;15.68;79.48;100667.19;5032173;28;20025;-59
2022/08/20 07:00:51;;;;;;;28.40;6.97;;;;;;;15.73;79.65;100673.50;5037695;28;20074;-59
2022/08/20 07:03:17;;;;;;;30.52;6.43;;;;;;;15.73;79.58;100672.66;5051732;28;20040;-59
2022/08/20 07:05:44;;;;;;;23.50;6.75;;;;;;;15.76;79.57;100672.16;5050315;28;20029;-59
2022/08/20 07:08:17;;;;;;;29.08;6.53;;;;;;;15.69;79.88;100675.03;5051679;28;20041;-59
2022/08/20 07:10:44;;;;;;;31.75;6.55;;;;;;;15.78;79.57;100668.19;5044662;28;20079;-59
2022/08/20 07:13:13;;;;;;;30.20;6.90;;;;;;;15.80;79.35;100671.44;5031172;28;20090;-59
2022/08/20 07:15:39;;;;;;;25.10;7.28;;;;;;;15.72;79.83;100671.03;5031807;28;20034;-59
2022/08/20 07:18:06;;;;;;;32.72;6.97;;;;;;;15.72;79.82;100671.03;5031597;28;20033;-59
2022/08/20 07:20:35;;;;;;;27.95;6.13;;;;;;;15.76;79.45;100680.25;5030828;28;20128;-59
2022/08/20 07:23:05;;;;;;;29.88;7.38;;;;;;;15.76;79.35;100666.78;5031847;28;20040;-59
2022/08/20 07:25:32;;;;;;;29.55;6.65;;;;;;;15.76;79.43;100672.97;5032168;28;20156;-59
2022/08/20 07:28:13;;;;;;;25.30;6.75;;;;;;;15.81;78.91;100673.06;5031278;28;20037;-59
2022/08/20 07:33:27;;;;;;;24.75;6.97;;;;;;;15.76;78.79;100661.38;5051392;28;20547;-59
2022/08/20 07:35:54;;;;;;;28.17;7.00;;;;;;;15.70;79.07;100662.34;5050967;28;20036;-59
2022/08/20 07:38:25;;;;;;;33.90;7.72;;;;;;;15.68;78.91;100662.59;5051083;28;20474;-59
2022/08/20 07:40:54;;;;;;;25.17;7.63;;;;;;;15.54;79.50;100659.34;5031103;28;20504;-59
2022/08/20 07:43:24;;;;;;;31.92;7.40;;;;;;;15.56;79.33;100654.56;5031387;28;20025;-59
2022/08/20 07:45:56;;;;;;;27.98;6.65;;;;;;;15.52;79.16;100666.06;5031673;28;20045;-59
2022/08/20 07:48:27;;;;;;;29.05;7.60;;;;;;;15.56;78.72;100662.66;5031445;28;20056;-59
2022/08/20 07:51:04;;;;;;;26.15;7.05;;;;;;;15.46;79.38;100662.47;5046344;28;20108;-58
2022/08/20 07:53:33;;;;;;;26.60;7.20;;;;;;;15.47;79.28;100661.41;5051017;28;20057;-59
2022/08/20 07:56:02;;;;;;;25.15;7.10;;;;;;;15.58;79.15;100652.41;5049262;28;20087;-59
2022/08/20 07:58:29;;;;;;;23.83;7.03;;;;;;;15.43;79.37;100656.72;5051294;28;20029;-59
2022/08/20 08:00:55;;;;;;;25.50;7.07;;;;;;;15.36;79.45;100646.09;5049367;23;20041;-59
2022/08/20 08:03:21;;;;;;;30.38;7.28;;;;;;;15.43;79.26;100649.44;5031326;28;20467;-59
2022/08/20 08:05:52;;;;;;;28.75;6.47;;;;;;;15.46;78.99;100648.97;5030291;28;20026;-59
2022/08/20 08:08:24;;;;;;;34.20;6.90;;;;;;;15.48;79.01;100636.06;5030823;28;20025;-59
2022/08/20 08:10:54;;;;;;;29.17;7.38;;;;;;;15.41;79.36;100642.66;5031454;28;20030;-58
2022/08/20 08:13:25;;;;;;;33.85;7.68;;;;;;;15.44;79.15;100642.19;5033783;28;20124;-59
2022/08/20 08:15:58;;;;;;;26.10;6.75;;;;;;;15.38;80.08;100643.16;5031595;28;20554;-59
2022/08/20 08:18:28;;;;;;;28.48;6.75;;;;;;;15.41;80.02;100645.38;5030727;28;20030;-59
2022/08/20 08:20:55;;;;;;;31.58;7.68;;;;;;;15.38;80.11;100648.53;5030741;28;20025;-59
2022/08/20 08:23:23;;;;;;;27.05;6.93;;;;;;;15.32;80.01;100651.16;5031052;28;20312;-59
2022/08/20 08:25:51;;;;;;;26.90;7.53;;;;;;;15.40;80.25;100649.94;5031086;28;20025;-59
2022/08/20 08:28:20;;;;;;;37.33;7.60;;;;;;;15.50;79.71;100657.41;5031290;28;20056;-59
2022/08/20 08:30:47;;;;;;;26.27;6.82;;;;;;;15.45;80.03;100655.44;5030527;28;20038;-59
2022/08/20 08:33:28;;;;;;;34.75;6.72;;;;;;;15.37;80.38;100647.72;5030909;28;20178;-59
2022/08/20 08:35:56;;;;;;;21.95;6.22;;;;;;;15.38;80.12;100644.00;5011048;28;20479;-58
2022/08/20 08:38:25;;;;;;;28.60;6.82;;;;;;;15.35;80.09;100646.34;5011116;28;20471;-59
2022/08/20 08:40:56;;;;;;;24.27;6.15;;;;;;;15.32;80.16;100639.53;5011034;28;20034;-59
2022/08/20 08:43:26;;;;;;;24.88;7.22;;;;;;;15.42;79.79;100639.72;5013946;28;20537;-59
2022/08/20 08:46:05;;;;;;;38.47;7.28;;;;;;;15.36;80.12;100640.69;5014656;28;20471;-59
2022/08/20 08:48:42;;;;;;;23.65;6.35;;;;;;;15.44;79.87;100651.09;5018641;28;20063;-59
2022/08/20 08:51:11;;;;;;;30.98;7.68;;;;;;;15.30;80.57;100647.06;5033904;28;20060;-59
2022/08/20 08:53:55;;;;;;;21.05;6.63;;;;;;;15.37;80.40;100649.59;5034366;28;20113;-58
2022/08/20 08:56:28;;;;;;;23.30;7.05;;;;;;;15.48;79.71;100643.31;5034095;28;20017;-59
2022/08/20 08:59:04;;;;;;;29.42;7.40;;;;;;;15.47;80.04;100639.00;5033925;28;20033;-59
2022/08/20 09:01:34;;;;;;;29.95;7.55;;;;;;;15.51;79.99;100645.56;5033901;28;20043;-59
2022/08/20 09:04:01;;;;;;;31.35;8.02;;;;;;;15.34;80.87;100645.53;5033858;28;20033;-59
2022/08/20 09:06:28;;;;;;;30.00;6.68;;;;;;;15.30;80.76;100645.19;5034465;28;20032;-59
2022/08/20 09:09:00;;;;;;;27.70;6.82;;;;;;;15.32;80.78;100650.31;5033847;28;20037;-59
2022/08/20 09:11:28;;;;;;;23.45;6.25;;;;;;;15.41;80.22;100648.88;5033967;28;20017;-59
2022/08/20 09:13:55;;;;;;;30.45;7.70;;;;;;;15.42;80.01;100639.72;5034245;28;20029;-58
2022/08/20 09:16:22;;;;;;;20.25;5.72;;;;;;;15.40;80.11;100638.34;5034143;28;20025;-59
2022/08/20 09:18:49;;;;;;;32.88;7.35;;;;;;;15.43;80.09;100635.97;5033861;28;20039;-59
2022/08/20 09:21:17;;;;;;;26.88;7.25;;;;;;;15.40;79.94;100647.25;5034331;28;20615;-59
2022/08/20 09:23:43;;;;;;;29.05;7.85;;;;;;;15.39;79.99;100640.22;5035344;28;20033;-59
2022/08/20 09:26:10;;;;;;;26.98;6.53;;;;;;;15.35;79.68;100644.47;5053604;28;20021;-59
2022/08/20 09:28:36;;;;;;;27.70;6.40;;;;;;;15.25;79.88;100655.06;5048796;28;20400;-59
2022/08/20 09:31:03;;;;;;;42.50;8.80;;;;;;;15.27;79.96;100642.16;5048585;28;20025;-58
2022/08/20 09:33:30;;;;;;;27.27;7.35;;;;;;;15.25;79.93;100644.28;5014387;28;20029;-59
2022/08/20 09:35:56;;;;;;;32.03;7.65;;;;;;;15.38;79.52;100640.44;5053306;28;20413;-59
2022/08/20 09:38:22;;;;;;;30.08;6.95;;;;;;;15.32;79.50;100640.38;5053416;28;20033;-59
2022/08/20 09:40:49;;;;;;;29.52;6.47;;;;;;;15.23;80.18;100635.63;5031740;28;20104;-59
2022/08/20 09:43:15;;;;;;;30.50;8.23;;;;;;;15.15;80.71;100639.50;5033394;28;20028;-59
2022/08/20 09:45:41;;;;;;;26.75;7.05;;;;;;;15.17;80.73;100636.59;5042884;28;20425;-58
2022/08/20 09:48:07;;;;;;;25.98;6.80;;;;;;;15.19;80.59;100640.66;5033168;28;20621;-59
2022/08/20 09:50:35;;;;;;;31.63;7.10;;;;;;;15.15;80.51;100638.69;5046753;28;20029;-59
2022/08/20 09:53:04;;;;;;;26.15;7.03;;;;;;;15.16;80.83;100643.84;5052516;28;20032;-59
2022/08/20 09:55:40;;;;;;;38.95;7.70;;;;;;;15.21;80.66;100635.88;5036105;28;20113;-58
2022/08/20 09:58:19;;;;;;;33.58;8.18;;;;;;;15.16;81.04;100645.72;5034667;28;20022;-59
2022/08/20 10:00:45;;;;;;;24.35;6.88;;;;;;;15.09;81.24;100639.66;5032702;28;20053;-59
2022/08/20 10:03:11;;;;;;;25.77;6.88;;;;;;;15.07;81.53;100644.47;5032578;28;20017;-58
2022/08/20 10:05:38;;;;;;;26.65;6.70;;;;;;;15.17;80.99;100642.78;5033150;28;20033;-58
2022/08/20 10:08:09;;;;;;;35.42;7.35;;;;;;;15.17;80.63;100640.09;5032800;28;20272;-58
2022/08/20 10:10:36;;;;;;;23.83;6.85;;;;;;;15.21;79.96;100637.72;5032465;28;20029;-59
2022/08/20 10:13:02;;;;;;;30.85;6.78;;;;;;;15.32;79.71;100642.22;5032328;28;20025;-58
2022/08/20 10:15:30;;;;;;;29.15;7.10;;;;;;;15.25;79.84;100645.09;5032804;28;20025;-59
2022/08/20 10:17:56;;;;;;;31.10;6.88;;;;;;;15.35;79.65;100638.25;5032563;28;20105;-59
2022/08/20 10:20:23;;;;;;;27.65;7.68;;;;;;;15.30;79.46;100647.06;5032428;28;20055;-59
2022/08/20 10:22:50;;;;;;;26.95;6.32;;;;;;;15.26;79.43;100640.50;5032267;28;20390;-59
2022/08/20 10:25:17;;;;;;;34.95;8.20;;;;;;;15.21;79.30;100637.72;5031792;28;20482;-59
2022/08/20 10:27:44;;;;;;;22.50;6.43;;;;;;;15.30;79.28;100637.09;5033600;28;20514;-59
2022/08/20 10:30:11;;;;;;;36.17;6.85;;;;;;;15.25;79.64;100638.88;5052150;28;20111;-59
2022/08/20 10:32:37;;;;;;;26.00;6.88;;;;;;;15.18;80.29;100643.59;5049424;28;20440;-59
2022/08/20 10:35:04;;;;;;;30.08;7.20;;;;;;;15.21;80.04;100645.81;5052380;28;20060;-58
2022/08/20 10:37:30;;;;;;;25.88;7.15;;;;;;;15.14;80.16;100639.75;5050471;28;20116;-59
2022/08/20 10:39:57;;;;;;;30.10;7.88;;;;;;;15.00;80.81;100637.34;5051797;28;20036;-58
2022/08/20 10:42:23;;;;;;;29.17;7.30;;;;;;;15.00;80.55;100633.84;5035734;28;20061;-58
2022/08/20 10:44:49;;;;;;;30.67;6.75;;;;;;;15.14;80.15;100635.16;5032589;28;20410;-58
2022/08/20 10:47:21;;;;;;;28.85;7.13;;;;;;;15.09;80.27;100639.66;5031236;28;20044;-58
2022/08/20 10:49:50;;;;;;;32.92;7.80;;;;;;;15.15;80.11;100631.41;5031834;28;20030;-59
2022/08/20 10:52:17;;;;;;;30.20;6.85;;;;;;;15.00;80.47;100636.53;5045440;28;20078;-59
2022/08/20 10:54:43;;;;;;;33.50;7.18;;;;;;;14.98;80.31;100639.44;5051909;28;20028;-59
2022/08/20 10:57:15;;;;;;;34.75;8.00;;;;;;;15.07;79.69;100636.38;5048769;28;20021;-59
2022/08/20 10:59:44;;;;;;;33.80;8.20;;;;;;;14.92;80.64;100635.00;5044404;28;20079;-59
2022/08/20 11:02:10;;;;;;;28.27;6.93;;;;;;;14.88;80.35;100643.81;5049125;23;20049;-58
2022/08/20 11:04:37;;;;;;;36.22;7.75;;;;;;;14.94;80.46;100632.91;5048487;28;20036;-59
2022/08/20 11:07:17;;;;;;;22.63;6.47;;;;;;;14.82;80.64;100636.69;5049332;28;20364;-58
2022/08/20 11:09:45;;;;;;;36.33;7.75;;;;;;;14.95;80.14;100644.53;5051659;28;20032;-59
2022/08/20 11:12:12;;;;;;;24.27;7.40;;;;;;;14.80;80.81;100647.72;5049618;28;20029;-59
2022/08/20 11:14:38;;;;;;;32.92;7.47;;;;;;;14.96;80.11;100644.28;5025557;28;20033;-58
2022/08/20 11:17:05;;;;;;;29.38;7.68;;;;;;;14.75;80.95;100637.66;5032648;28;20399;-59
2022/08/20 11:19:31;;;;;;;27.80;6.90;;;;;;;14.85;80.51;100647.81;5051115;28;20032;-59
2022/08/20 11:21:57;;;;;;;33.22;6.70;;;;;;;14.92;80.39;100650.38;5045554;28;20032;-58
2022/08/20 11:24:24;;;;;;;28.77;7.03;;;;;;;14.94;80.10;100649.09;5031789;28;20307;-59
2022/08/20 11:26:52;;;;;;;25.80;6.75;;;;;;;14.82;80.44;100640.19;5038373;28;20025;-58
2022/08/20 11:29:21;;;;;;;29.67;7.38;;;;;;;14.84;80.71;100643.50;5050814;28;20212;-59